createdAt,value
2019-02-24T00:01:49.653Z,88.50
2019-02-24T00:04:18.457Z,88.20
2019-02-24T00:06:47.268Z,88.50
2019-02-24T00:11:44.702Z,88.60
2019-02-24T00:14:13.486Z,88.80
2019-02-24T00:19:10.621Z,88.90
2019-02-24T00:21:39.473Z,88.90
2019-02-24T00:24:08.604Z,89.50
2019-02-24T00:26:37.456Z,89.30
2019-02-24T00:29:06.276Z,89.20
2019-02-24T00:31:35.124Z,89.70
2019-02-24T00:34:03.976Z,88.80
2019-02-24T00:36:32.841Z,88.70
2019-02-24T00:39:01.620Z,89.30
2019-02-24T00:46:27.046Z,89.60
2019-02-24T00:48:55.827Z,88.90
2019-02-24T00:51:24.858Z,88.60
2019-02-24T00:53:53.644Z,89.00
2019-02-24T00:56:22.421Z,88.50
2019-02-24T00:58:51.204Z,89.40
2019-02-24T01:01:20.049Z,88.40
2019-02-24T01:03:49.213Z,88.20
2019-02-24T01:08:46.470Z,88.50
2019-02-24T01:13:43.660Z,88.30
2019-02-24T01:16:12.429Z,88.80
2019-02-24T01:18:41.223Z,88.50
2019-02-24T01:23:38.468Z,87.90
2019-02-24T01:26:07.290Z,87.20
2019-02-24T01:28:36.113Z,88.10
2019-02-24T01:31:04.880Z,88.10
2019-02-24T01:33:33.709Z,88.30
2019-02-24T01:36:02.480Z,87.90
2019-02-24T01:38:31.289Z,86.60
2019-02-24T01:43:28.401Z,85.60
2019-02-24T01:45:57.247Z,85.70
2019-02-24T01:50:54.340Z,86.90
2019-02-24T01:55:51.512Z,87.70
2019-02-24T01:58:20.300Z,86.90
2019-02-24T02:00:49.153Z,86.30
2019-02-24T02:03:17.933Z,86.40
2019-02-24T02:05:46.713Z,85.50
2019-02-24T02:08:15.641Z,84.50
2019-02-24T02:10:44.420Z,84.80
2019-02-24T02:13:13.196Z,85.30
2019-02-24T02:20:38.633Z,85.60
2019-02-24T02:23:07.485Z,85.70
2019-02-24T02:28:04.717Z,85.70
2019-02-24T02:30:33.492Z,85.80
2019-02-24T02:33:02.285Z,86.30
2019-02-24T02:35:31.061Z,86.40
2019-02-24T02:47:53.234Z,86.20
2019-02-24T02:50:22.306Z,86.70
2019-02-24T02:55:19.393Z,86.80
2019-02-24T02:57:48.423Z,87.00
2019-02-24T03:00:29.192Z,87.30
2019-02-24T03:02:57.982Z,87.90
2019-02-24T03:05:26.903Z,87.80
2019-02-24T03:12:57.118Z,87.60
2019-02-24T03:20:22.613Z,87.30
2019-02-24T03:22:51.381Z,87.70
2019-02-24T03:27:49.978Z,87.00
2019-02-24T03:30:18.753Z,87.00
2019-02-24T03:35:15.865Z,88.00
2019-02-24T03:37:44.638Z,88.10
2019-02-24T03:47:38.616Z,88.30
2019-02-24T03:50:07.616Z,88.70
2019-02-24T03:52:36.388Z,88.40
2019-02-24T03:55:05.266Z,87.80
2019-02-24T04:00:02.506Z,88.10
2019-02-24T04:02:31.344Z,88.40
2019-02-24T04:07:28.446Z,88.70
2019-02-24T04:09:57.221Z,89.00
2019-02-24T04:17:22.700Z,89.70
2019-02-24T04:22:19.784Z,90.00
2019-02-24T04:32:13.760Z,90.10
2019-02-24T04:34:42.540Z,90.20
2019-02-24T04:37:11.473Z,90.40
2019-02-24T04:39:40.261Z,90.50
2019-02-24T04:42:09.021Z,90.70
2019-02-24T04:49:34.489Z,90.30
2019-02-24T04:52:03.345Z,90.30
2019-02-24T04:54:32.247Z,90.30
2019-02-24T04:57:01.001Z,90.20
2019-02-24T04:59:34.944Z,90.30
2019-02-24T05:02:00.530Z,89.90
2019-02-24T05:11:54.840Z,88.30
2019-02-24T05:14:23.625Z,88.10
2019-02-24T05:19:20.724Z,88.30
2019-02-24T05:21:49.873Z,88.30
2019-02-24T05:24:18.673Z,88.50
2019-02-24T05:26:47.757Z,88.50
2019-02-24T05:29:16.529Z,89.10
2019-02-24T05:31:45.293Z,89.50
2019-02-24T05:34:14.144Z,90.00
2019-02-24T05:36:43.157Z,89.10
2019-02-24T05:41:40.377Z,89.50
2019-02-24T05:44:09.153Z,89.50
2019-02-24T05:49:06.224Z,89.70
2019-02-24T05:51:35.003Z,90.20
2019-02-24T05:54:03.765Z,89.50
2019-02-24T05:56:32.553Z,89.60
2019-02-24T05:59:01.338Z,89.80
2019-02-24T06:01:30.110Z,90.50
2019-02-24T06:03:58.876Z,90.40
2019-02-24T06:11:24.313Z,90.10
2019-02-24T06:13:53.077Z,90.10
2019-02-24T06:16:21.860Z,89.70
2019-02-24T06:18:50.881Z,90.10
2019-02-24T06:21:19.737Z,90.30
2019-02-24T06:23:48.521Z,90.60
2019-02-24T06:26:17.368Z,90.50
2019-02-24T06:28:46.140Z,91.00
2019-02-24T06:31:15.009Z,91.30
2019-02-24T06:33:44.473Z,91.10
2019-02-24T06:38:41.642Z,90.60
2019-02-24T06:41:10.486Z,90.50
2019-02-24T06:43:39.259Z,91.00
2019-02-24T06:51:07.325Z,90.90
2019-02-24T06:53:36.112Z,91.50
2019-02-24T06:56:04.887Z,91.20
2019-02-24T06:58:33.643Z,91.10
2019-02-24T07:01:02.424Z,91.10
2019-02-24T07:03:31.185Z,90.90
2019-02-24T07:08:28.297Z,90.80
2019-02-24T07:10:57.060Z,91.10
2019-02-24T07:18:22.507Z,91.20
2019-02-24T07:20:51.352Z,91.10
2019-02-24T07:23:20.129Z,91.20
2019-02-24T07:25:48.968Z,91.30
2019-02-24T07:28:17.775Z,91.40
2019-02-24T07:30:46.531Z,91.40
2019-02-24T07:38:12.135Z,91.50
2019-02-24T07:40:40.912Z,91.60
2019-02-24T07:43:09.972Z,91.40
2019-02-24T07:45:38.800Z,91.00
2019-02-24T07:48:07.584Z,90.90
2019-02-24T07:50:36.369Z,90.90
2019-02-24T07:53:05.223Z,91.00
2019-02-24T07:55:34.000Z,90.90
2019-02-24T07:58:02.804Z,91.20
2019-02-24T08:00:32.475Z,90.10
2019-02-24T08:03:01.646Z,90.00
2019-02-24T08:05:30.854Z,90.20
2019-02-24T08:10:27.965Z,90.10
2019-02-24T08:12:56.765Z,89.40
2019-02-24T08:15:25.540Z,87.80
2019-02-24T08:17:54.584Z,88.30
2019-02-24T08:20:23.369Z,84.90
2019-02-24T08:22:52.176Z,84.00
2019-02-24T08:25:20.952Z,83.00
2019-02-24T08:27:49.736Z,80.00
2019-02-24T08:30:18.525Z,78.60
2019-02-24T08:32:47.313Z,77.90
2019-02-24T08:35:16.088Z,78.60
2019-02-24T08:37:45.386Z,73.60
2019-02-24T08:40:14.189Z,71.00
2019-02-24T08:42:43.052Z,68.90
2019-02-24T08:45:11.840Z,67.70
2019-02-24T08:47:40.637Z,69.30
2019-02-24T08:50:09.572Z,69.00
2019-02-24T08:52:38.433Z,67.90
2019-02-24T08:55:07.346Z,64.60
2019-02-24T08:57:36.136Z,65.30
2019-02-24T09:00:06.444Z,64.10
2019-02-24T09:02:35.225Z,64.60
2019-02-24T09:05:04.469Z,64.30
2019-02-24T09:07:33.233Z,65.10
2019-02-24T09:10:02.014Z,62.30
2019-02-24T09:12:30.800Z,62.20
2019-02-24T09:15:00.101Z,62.80
2019-02-24T09:17:29.131Z,60.10
2019-02-24T09:19:58.013Z,59.80
2019-02-24T09:22:26.937Z,60.40
2019-02-24T09:24:55.746Z,61.10
2019-02-24T09:27:24.600Z,59.40
2019-02-24T09:29:53.405Z,59.80
2019-02-24T09:32:22.176Z,59.20
2019-02-24T09:34:51.464Z,59.00
2019-02-24T09:37:20.232Z,58.90
2019-02-24T09:39:49.020Z,58.20
2019-02-24T09:42:18.077Z,57.90
2019-02-24T09:44:47.148Z,58.10
2019-02-24T09:47:16.177Z,57.20
2019-02-24T09:49:44.952Z,57.10
2019-02-24T09:52:13.730Z,58.40
2019-02-24T09:54:42.529Z,57.60
2019-02-24T09:57:11.292Z,56.40
2019-02-24T09:59:40.077Z,56.40
2019-02-24T10:02:08.860Z,56.60
2019-02-24T10:04:37.709Z,56.80
2019-02-24T10:07:06.499Z,54.70
2019-02-24T10:09:35.294Z,55.20
2019-02-24T10:12:04.101Z,53.90
2019-02-24T10:14:32.880Z,51.80
2019-02-24T10:17:01.725Z,49.70
2019-02-24T10:19:31.318Z,49.10
2019-02-24T10:22:00.230Z,50.00
2019-02-24T10:24:29.011Z,49.50
2019-02-24T10:26:57.784Z,50.00
2019-02-24T10:29:26.627Z,48.50
2019-02-24T10:31:55.486Z,48.10
2019-02-24T10:34:24.270Z,48.10
2019-02-24T10:36:53.229Z,48.00
2019-02-24T10:39:29.477Z,47.30
2019-02-24T10:41:53.739Z,46.10
2019-02-24T10:44:22.656Z,45.60
2019-02-24T10:46:51.437Z,44.80
2019-02-24T10:49:20.223Z,44.70
2019-02-24T10:51:49.016Z,45.00
2019-02-24T10:54:17.782Z,45.00
2019-02-24T10:59:16.856Z,43.70
2019-02-24T11:01:45.393Z,44.30
2019-02-24T11:04:14.172Z,44.10
2019-02-24T11:06:43.200Z,43.70
2019-02-24T11:09:11.964Z,43.40
2019-02-24T11:11:41.111Z,42.70
2019-02-24T11:14:09.961Z,41.80
2019-02-24T11:16:38.817Z,41.70
2019-02-24T11:19:07.901Z,41.50
2019-02-24T11:24:05.073Z,41.70
2019-02-24T11:26:33.856Z,41.10
2019-02-24T11:29:02.633Z,40.90
2019-02-24T11:31:38.113Z,40.50
2019-02-24T11:34:02.064Z,40.00
2019-02-24T11:36:30.868Z,40.60
2019-02-24T11:38:59.632Z,40.00
2019-02-24T11:41:28.410Z,39.70
2019-02-24T11:43:57.211Z,39.40
2019-02-24T11:46:25.997Z,39.20
2019-02-24T11:48:55.111Z,39.60
2019-02-24T11:51:23.897Z,40.00
2019-02-24T11:53:52.724Z,40.10
2019-02-24T11:56:21.549Z,39.70
2019-02-24T11:58:50.434Z,39.60
2019-02-24T12:01:19.232Z,39.30
2019-02-24T12:03:48.018Z,38.20
2019-02-24T12:06:16.808Z,37.60
2019-02-24T12:08:45.589Z,37.30
2019-02-24T12:11:14.450Z,36.30
2019-02-24T12:13:43.244Z,36.30
2019-02-24T12:16:12.130Z,36.10
2019-02-24T12:18:40.973Z,35.30
2019-02-24T12:21:10.760Z,35.20
2019-02-24T12:26:07.989Z,34.80
2019-02-24T12:28:36.794Z,34.70
2019-02-24T12:31:05.725Z,33.90
2019-02-24T12:36:02.977Z,34.60
2019-02-24T12:38:31.844Z,34.90
2019-02-24T12:41:00.695Z,34.90
2019-02-24T12:43:29.512Z,34.10
2019-02-24T12:45:58.313Z,34.10
2019-02-24T12:48:27.108Z,34.20
2019-02-24T12:50:55.892Z,34.20
2019-02-24T12:53:24.711Z,34.40
2019-02-24T12:58:21.885Z,34.00
2019-02-24T13:00:50.665Z,34.00
2019-02-24T13:03:23.902Z,34.00
2019-02-24T13:08:18.402Z,33.30
2019-02-24T13:10:47.173Z,33.60
2019-02-24T13:13:16.113Z,33.60
2019-02-24T13:15:44.966Z,33.60
2019-02-24T13:20:42.202Z,33.30
2019-02-24T13:23:16.015Z,32.70
2019-02-24T13:25:44.966Z,32.80
2019-02-24T13:28:13.824Z,32.80
2019-02-24T13:33:10.990Z,32.50
2019-02-24T13:35:40.697Z,32.10
2019-02-24T13:38:09.848Z,31.60
2019-02-24T13:40:41.784Z,30.40
2019-02-24T13:45:39.036Z,30.60
2019-02-24T13:48:07.897Z,30.90
2019-02-24T13:50:36.688Z,30.80
2019-02-24T13:53:05.793Z,30.60
2019-02-24T13:55:34.563Z,30.00
2019-02-24T13:58:03.344Z,29.50
2019-02-24T14:00:32.199Z,29.00
2019-02-24T14:03:00.990Z,29.40
2019-02-24T14:05:29.778Z,29.40
2019-02-24T14:07:58.988Z,28.70
2019-02-24T14:10:27.929Z,28.70
2019-02-24T14:12:56.726Z,28.70
2019-02-24T14:15:25.507Z,28.70
2019-02-24T14:17:54.273Z,28.80
2019-02-24T14:20:23.049Z,28.90
2019-02-24T14:22:51.887Z,28.40
2019-02-24T14:25:20.661Z,28.30
2019-02-24T14:27:49.433Z,28.20
2019-02-24T14:30:18.453Z,27.50
2019-02-24T14:32:47.376Z,27.80
2019-02-24T14:35:16.177Z,28.10
2019-02-24T14:37:45.041Z,28.60
2019-02-24T14:40:14.072Z,28.50
2019-02-24T14:42:42.996Z,28.80
2019-02-24T14:45:14.000Z,28.40
2019-02-24T14:47:42.807Z,28.80
2019-02-24T14:50:11.774Z,28.50
2019-02-24T14:52:40.548Z,28.80
2019-02-24T14:55:11.985Z,28.80
2019-02-24T14:57:40.855Z,29.00
2019-02-24T15:00:11.905Z,29.20
2019-02-24T15:02:42.717Z,29.60
2019-02-24T15:10:10.485Z,29.50
2019-02-24T15:12:39.352Z,30.00
2019-02-24T15:15:10.100Z,30.30
2019-02-24T15:17:38.954Z,30.30
2019-02-24T15:20:09.324Z,29.90
2019-02-24T15:22:38.132Z,29.80
2019-02-24T15:25:08.648Z,29.70
2019-02-24T15:27:37.457Z,30.00
2019-02-24T15:30:09.636Z,30.00
2019-02-24T15:32:38.413Z,30.40
2019-02-24T15:35:07.629Z,30.70
2019-02-24T15:37:36.412Z,31.00
2019-02-24T15:40:05.988Z,31.30
2019-02-24T15:42:34.772Z,31.50
2019-02-24T15:45:03.635Z,31.60
2019-02-24T15:47:32.498Z,31.60
2019-02-24T15:50:01.282Z,31.70
2019-02-24T15:52:30.223Z,31.60
2019-02-24T15:54:59.012Z,31.50
2019-02-24T15:57:27.787Z,31.50
2019-02-24T15:59:56.553Z,31.80
2019-02-24T16:02:25.404Z,32.40
2019-02-24T16:04:54.211Z,33.10
2019-02-24T16:07:23.048Z,35.10
2019-02-24T16:09:51.837Z,37.60
2019-02-24T16:12:20.613Z,39.70
2019-02-24T16:14:49.424Z,40.00
2019-02-24T16:17:18.219Z,40.10
2019-02-24T16:19:46.996Z,41.10
2019-02-24T16:22:15.777Z,42.30
2019-02-24T16:24:44.553Z,42.90
2019-02-24T16:27:13.329Z,43.80
2019-02-24T16:29:42.088Z,46.00
2019-02-24T16:32:10.875Z,46.60
2019-02-24T16:34:39.644Z,47.80
2019-02-24T16:37:08.437Z,48.80
2019-02-24T16:39:37.211Z,50.20
2019-02-24T16:42:06.264Z,51.20
2019-02-24T16:44:35.230Z,52.20
2019-02-24T16:47:04.081Z,52.90
2019-02-24T16:49:32.840Z,53.40
2019-02-24T16:52:01.612Z,54.40
2019-02-24T16:54:30.440Z,54.30
2019-02-24T16:57:05.117Z,54.30
2019-02-24T16:59:29.704Z,55.70
2019-02-24T17:01:58.484Z,57.10
2019-02-24T17:04:27.256Z,57.80
2019-02-24T17:06:56.120Z,58.60
2019-02-24T17:09:24.891Z,58.90
2019-02-24T17:11:53.679Z,59.40
2019-02-24T17:14:22.448Z,59.90
2019-02-24T17:16:51.285Z,60.40
2019-02-24T17:19:20.065Z,61.60
2019-02-24T17:21:48.848Z,61.60
2019-02-24T17:24:17.984Z,61.60
2019-02-24T17:26:46.769Z,62.00
2019-02-24T17:29:15.629Z,62.50
2019-02-24T17:31:44.423Z,62.80
2019-02-24T17:34:13.176Z,63.20
2019-02-24T17:36:42.217Z,64.40
2019-02-24T17:39:11.048Z,63.90
2019-02-24T17:41:39.824Z,63.70
2019-02-24T17:44:08.672Z,63.80
2019-02-24T17:46:37.440Z,64.00
2019-02-24T17:49:06.246Z,64.80
2019-02-24T17:51:35.033Z,64.70
2019-02-24T17:54:03.915Z,65.70
2019-02-24T17:56:33.709Z,67.50
2019-02-24T17:59:02.513Z,66.80
2019-02-24T18:01:32.349Z,65.60
2019-02-24T18:06:29.847Z,65.20
2019-02-24T18:08:58.653Z,65.30
2019-02-24T18:11:27.504Z,65.70
2019-02-24T18:16:24.687Z,66.10
2019-02-24T18:18:53.540Z,65.60
2019-02-24T18:21:22.317Z,67.00
2019-02-24T18:23:51.105Z,67.70
2019-02-24T18:28:48.548Z,67.70
2019-02-24T18:33:48.337Z,68.10
2019-02-24T18:46:09.705Z,68.20
2019-02-24T18:48:38.496Z,68.80
2019-02-24T18:51:07.281Z,68.60
2019-02-24T18:53:36.053Z,69.30
2019-02-24T18:56:04.884Z,69.30
2019-02-24T18:58:33.660Z,67.50
2019-02-24T19:01:02.445Z,69.90
2019-02-24T19:03:31.213Z,69.80
2019-02-24T19:05:59.993Z,70.40
2019-02-24T19:08:28.844Z,71.00
2019-02-24T19:10:57.684Z,70.90
2019-02-24T19:13:26.456Z,71.00
2019-02-24T19:15:58.134Z,70.90
2019-02-24T19:18:26.936Z,70.80
2019-02-24T19:23:24.114Z,70.20
2019-02-24T19:25:52.896Z,70.20
2019-02-24T19:28:21.730Z,70.00
2019-02-24T19:30:50.540Z,70.00
2019-02-24T19:33:19.386Z,70.20
2019-02-24T19:35:48.181Z,70.80
2019-02-24T19:38:16.988Z,70.10
2019-02-24T19:40:45.945Z,70.20
2019-02-24T19:43:14.988Z,70.40
2019-02-24T19:45:43.846Z,70.20
2019-02-24T19:48:12.666Z,71.00
2019-02-24T19:50:41.490Z,70.80
2019-02-24T19:53:10.273Z,71.60
2019-02-24T19:55:39.191Z,69.70
2019-02-24T19:58:08.036Z,69.40
2019-02-24T20:00:36.889Z,69.50
2019-02-24T20:03:05.736Z,69.60
2019-02-24T20:05:34.630Z,69.60
2019-02-24T20:08:03.505Z,69.70
2019-02-24T20:10:32.354Z,71.20
2019-02-24T20:13:01.156Z,71.50
2019-02-24T20:15:30.013Z,71.30
2019-02-24T20:17:58.873Z,70.80
2019-02-24T20:20:27.682Z,70.70
2019-02-24T20:22:56.596Z,71.00
2019-02-24T20:25:25.469Z,72.20
2019-02-24T20:27:54.261Z,71.40
2019-02-24T20:30:25.205Z,70.90
2019-02-24T20:32:54.120Z,71.40
2019-02-24T20:35:23.127Z,71.00
2019-02-24T20:37:51.976Z,71.20
2019-02-24T20:40:20.909Z,70.70
2019-02-24T20:42:49.761Z,71.00
2019-02-24T20:45:19.165Z,71.10
2019-02-24T20:47:48.034Z,71.80
2019-02-24T20:50:18.377Z,71.40
2019-02-24T20:52:47.151Z,71.60
2019-02-24T20:55:16.012Z,72.00
2019-02-24T20:57:44.868Z,71.50
2019-02-24T21:00:17.031Z,72.40
2019-02-24T21:02:45.801Z,72.00
2019-02-24T21:05:14.735Z,73.60
2019-02-24T21:07:43.778Z,73.80
2019-02-24T21:10:12.715Z,73.40
2019-02-24T21:12:41.489Z,73.80
2019-02-24T21:17:39.099Z,74.40
2019-02-24T21:20:10.781Z,75.20
2019-02-24T21:22:39.693Z,75.20
2019-02-24T21:25:08.637Z,75.70
2019-02-24T21:27:37.409Z,75.60
2019-02-24T21:30:07.152Z,76.10
2019-02-24T21:32:36.012Z,76.10
2019-02-24T21:35:05.180Z,76.90
2019-02-24T21:37:33.945Z,75.80
2019-02-24T21:40:02.734Z,75.70
2019-02-24T21:42:31.520Z,75.30
2019-02-24T21:45:00.314Z,75.30
2019-02-24T21:47:29.168Z,74.40
2019-02-24T21:49:58.808Z,74.70
2019-02-24T21:52:27.658Z,74.60
2019-02-24T21:54:56.492Z,75.30
2019-02-24T21:57:25.368Z,75.90
2019-02-24T21:59:54.182Z,75.50
2019-02-24T22:02:22.961Z,76.70
2019-02-24T22:04:51.856Z,76.50
2019-02-24T22:07:20.632Z,75.90
2019-02-24T22:09:49.421Z,76.40
2019-02-24T22:12:18.275Z,76.20
2019-02-24T22:14:47.071Z,76.70
2019-02-24T22:17:15.845Z,76.70
2019-02-24T22:19:44.632Z,77.60
2019-02-24T22:22:13.465Z,77.70
2019-02-24T22:24:42.248Z,76.60
2019-02-24T22:27:11.022Z,76.50
2019-02-24T22:29:39.812Z,76.10
2019-02-24T22:32:08.609Z,76.60
2019-02-24T22:34:37.396Z,76.40
2019-02-24T22:37:06.189Z,76.40
2019-02-24T22:39:35.300Z,76.50
2019-02-24T22:42:04.180Z,77.50
2019-02-24T22:44:33.189Z,77.20
2019-02-24T22:47:02.001Z,77.50
2019-02-24T22:49:30.788Z,78.10
2019-02-24T22:51:59.822Z,78.30
2019-02-24T22:54:28.613Z,78.10
2019-02-24T22:56:57.399Z,78.50
2019-02-24T22:59:26.197Z,79.30
2019-02-24T23:01:55.192Z,79.00
2019-02-24T23:04:23.982Z,78.80
2019-02-24T23:06:52.751Z,79.30
2019-02-24T23:09:21.994Z,78.50
2019-02-24T23:14:19.094Z,78.80
2019-02-24T23:16:47.882Z,78.10
2019-02-24T23:19:16.726Z,77.90
2019-02-24T23:21:45.523Z,78.50
2019-02-24T23:24:14.320Z,78.20
2019-02-24T23:26:43.176Z,78.30
2019-02-24T23:29:11.940Z,78.30
2019-02-24T23:31:43.787Z,79.10
2019-02-24T23:34:12.636Z,79.50
2019-02-24T23:36:41.489Z,80.20
2019-02-24T23:39:14.734Z,79.90
2019-02-24T23:41:43.522Z,81.00
2019-02-24T23:49:09.233Z,79.40
2019-02-24T23:51:38.051Z,79.60
2019-02-24T23:56:35.329Z,79.10
2019-02-24T23:59:04.212Z,78.50
